Main page


Airports :

Trieste, Italy

latitude: 45-39N, longitude: 013-45E, elevation: 8 m

Current weather observation

The report was made 3 hours and 56 minutes ago, at 17:55 UTC
Wind 4 kt from the Southwest with gusts up to 18 kt
Temperature 6°C
Humidity 28%
Pressure 1007 hPa
Visibility 10 km or more
no clouds below 1500 m and no cumulonimbus

METAR: LIVT 221755Z 23004G18KT CAVOK 06/M11 Q1007 RMK SKC QUK 2 QUL 1 SW VIS MAR 20 KM VIS MIN 9999

Time: 22:51 (21:51 UTC)

TAF: missing

Weather observations and forecasts of more than 4000 airports (METAR and TAF reports).

The available stations are represented by yellow and red dots on the map.

Hover mouse over dot to see the name of the station.

Then click to see weather observations and forecasts.

To change the map : click on the green buttons with a black cross to zoom in, on the green button with a dash to zoom out, or on the green arrows for adjacent maps.